sensor_id;sensor_type;location;lat;lon;timestamp;pressure;altitude;pressure_sealevel;temperature;humidity
54439;BME280;40347;53.848;27.498;2023-05-19T00:01:21;1023.7;;;12.6;64.8
54439;BME280;40347;53.848;27.498;2023-05-19T00:06:22;1023.7;;;12.6;65.1
54439;BME280;40347;53.848;27.498;2023-05-19T00:11:43;1023.7;;;12.4;65.9
54439;BME280;40347;53.848;27.498;2023-05-19T00:16:22;1023.7;;;12.4;65.8
54439;BME280;40347;53.848;27.498;2023-05-19T00:21:30;1023.8;;;12.4;65.5
54439;BME280;40347;53.848;27.498;2023-05-19T00:26:31;1023.8;;;12.4;65.5
54439;BME280;40347;53.848;27.498;2023-05-19T00:31:21;1023.8;;;12.4;65.4
54439;BME280;40347;53.848;27.498;2023-05-19T00:36:21;1023.8;;;12.5;65.2
54439;BME280;40347;53.848;27.498;2023-05-19T00:41:31;1023.8;;;12.5;64.8
54439;BME280;40347;53.848;27.498;2023-05-19T00:46:21;1023.8;;;12.6;63.9
54439;BME280;40347;53.848;27.498;2023-05-19T00:51:31;1023.8;;;12.6;63.6
54439;BME280;40347;53.848;27.498;2023-05-19T00:56:21;1023.8;;;12.7;63.1
54439;BME280;40347;53.848;27.498;2023-05-19T01:01:37;1023.8;;;12.6;63
54439;BME280;40347;53.848;27.498;2023-05-19T01:06:21;1023.8;;;12.7;62.6
54439;BME280;40347;53.848;27.498;2023-05-19T01:11:31;1023.8;;;12.6;62.5
54439;BME280;40347;53.848;27.498;2023-05-19T01:16:32;1023.9;;;12.6;62.3
54439;BME280;40347;53.848;27.498;2023-05-19T01:21:25;1023.9;;;12.6;62.3
54439;BME280;40347;53.848;27.498;2023-05-19T01:26:34;1023.9;;;12.6;62.2
54439;BME280;40347;53.848;27.498;2023-05-19T01:31:22;1023.9;;;12.6;62.1
54439;BME280;40347;53.848;27.498;2023-05-19T01:36:31;1023.9;;;12.6;61.9
54439;BME280;40347;53.848;27.498;2023-05-19T01:41:21;1024;;;12.7;62
54439;BME280;40347;53.848;27.498;2023-05-19T01:46:27;1024;;;12.7;61.9
54439;BME280;40347;53.848;27.498;2023-05-19T01:51:37;1024.1;;;12.7;62.1
54439;BME280;40347;53.848;27.498;2023-05-19T01:56:24;1024.1;;;12.6;62.8
54439;BME280;40347;53.848;27.498;2023-05-19T02:01:52;1024.1;;;12.6;62.8
54439;BME280;40347;53.848;27.498;2023-05-19T02:06:35;1024.1;;;12.6;62.9
54439;BME280;40347;53.848;27.498;2023-05-19T02:11:29;1024.1;;;12.7;62.8
54439;BME280;40347;53.848;27.498;2023-05-19T02:16:31;1024.1;;;12.6;62.6
54439;BME280;40347;53.848;27.498;2023-05-19T02:21:21;1024.1;;;12.6;62.7
54439;BME280;40347;53.848;27.498;2023-05-19T02:26:33;1024.2;;;12.7;62.8
54439;BME280;40347;53.848;27.498;2023-05-19T02:31:37;1024.2;;;12.8;62.5
54439;BME280;40347;53.848;27.498;2023-05-19T02:36:34;1024.2;;;12.9;62.3
54439;BME280;40347;53.848;27.498;2023-05-19T02:41:31;1024.2;;;12.8;62
54439;BME280;40347;53.848;27.498;2023-05-19T02:46:31;1024.2;;;12.8;62
54439;BME280;40347;53.848;27.498;2023-05-19T02:51:21;1024.2;;;12.9;61.8
54439;BME280;40347;53.848;27.498;2023-05-19T02:56:27;1024.2;;;12.9;61.8
54439;BME280;40347;53.848;27.498;2023-05-19T03:01:31;1024.3;;;12.8;61.8
54439;BME280;40347;53.848;27.498;2023-05-19T03:06:21;1024.3;;;12.9;61.2
54439;BME280;40347;53.848;27.498;2023-05-19T03:11:27;1024.4;;;13;60.9
54439;BME280;40347;53.848;27.498;2023-05-19T03:16:55;1024.4;;;13.1;60.6
54439;BME280;40347;53.848;27.498;2023-05-19T03:21:21;1024.4;;;13.2;59.9
54439;BME280;40347;53.848;27.498;2023-05-19T03:26:21;1024.5;;;13.3;59.2
54439;BME280;40347;53.848;27.498;2023-05-19T03:31:31;1024.5;;;13.2;59
54439;BME280;40347;53.848;27.498;2023-05-19T03:36:43;1024.6;;;13.2;59.2
54439;BME280;40347;53.848;27.498;2023-05-19T03:41:31;1024.6;;;13.2;59.2
54439;BME280;40347;53.848;27.498;2023-05-19T03:46:21;1024.6;;;13.3;59.2
54439;BME280;40347;53.848;27.498;2023-05-19T03:51:43;1024.6;;;13.4;58.6
54439;BME280;40347;53.848;27.498;2023-05-19T03:56:43;1024.6;;;13.4;58.1
54439;BME280;40347;53.848;27.498;2023-05-19T04:01:21;1024.7;;;13.5;58.3
54439;BME280;40347;53.848;27.498;2023-05-19T04:06:22;1024.7;;;13.5;58
54439;BME280;40347;53.848;27.498;2023-05-19T04:11:41;1024.7;;;13.5;57.3
54439;BME280;40347;53.848;27.498;2023-05-19T04:16:29;1024.7;;;13.5;57.7
54439;BME280;40347;53.848;27.498;2023-05-19T04:21:21;1024.7;;;13.6;57.4
54439;BME280;40347;53.848;27.498;2023-05-19T04:26:39;1024.7;;;13.7;57
54439;BME280;40347;53.848;27.498;2023-05-19T04:31:21;1024.7;;;13.6;57
54439;BME280;40347;53.848;27.498;2023-05-19T04:36:27;1024.7;;;13.5;57.3
54439;BME280;40347;53.848;27.498;2023-05-19T04:41:31;1024.7;;;13.6;57.7
54439;BME280;40347;53.848;27.498;2023-05-19T04:46:43;1024.7;;;13.6;57.4
54439;BME280;40347;53.848;27.498;2023-05-19T04:51:53;1024.7;;;13.5;57.4
54439;BME280;40347;53.848;27.498;2023-05-19T04:56:21;1024.7;;;13.5;57.6
54439;BME280;40347;53.848;27.498;2023-05-19T05:01:33;1024.8;;;13.4;57.9
54439;BME280;40347;53.848;27.498;2023-05-19T05:06:21;1024.8;;;13.3;58.4
54439;BME280;40347;53.848;27.498;2023-05-19T05:11:34;1024.9;;;13.4;58.5
54439;BME280;40347;53.848;27.498;2023-05-19T05:16:34;1024.8;;;13.5;58.7
54439;BME280;40347;53.848;27.498;2023-05-19T05:21:21;1024.8;;;13.7;58.5
54439;BME280;40347;53.848;27.498;2023-05-19T05:26:21;1024.8;;;13.7;58.3
54439;BME280;40347;53.848;27.498;2023-05-19T05:31:57;1024.8;;;13.7;58.3
54439;BME280;40347;53.848;27.498;2023-05-19T05:36:21;1024.8;;;13.9;58.5
54439;BME280;40347;53.848;27.498;2023-05-19T05:41:33;1024.8;;;14.1;58.2
54439;BME280;40347;53.848;27.498;2023-05-19T05:46:33;1024.8;;;14.2;58.1
54439;BME280;40347;53.848;27.498;2023-05-19T05:51:21;1024.8;;;14.4;57.4
54439;BME280;40347;53.848;27.498;2023-05-19T05:56:21;1024.9;;;14.7;56.8
54439;BME280;40347;53.848;27.498;2023-05-19T06:01:21;1024.9;;;15.2;55.9
54439;BME280;40347;53.848;27.498;2023-05-19T06:06:31;1024.9;;;15.6;54.6
54439;BME280;40347;53.848;27.498;2023-05-19T06:11:31;1024.9;;;16.1;53.3
54439;BME280;40347;53.848;27.498;2023-05-19T06:16:21;1024.9;;;16.5;51.9
54439;BME280;40347;53.848;27.498;2023-05-19T06:21:31;1024.9;;;16.7;51.2
54439;BME280;40347;53.848;27.498;2023-05-19T06:26:33;1024.9;;;17.1;51.2
54439;BME280;40347;53.848;27.498;2023-05-19T06:31:22;1024.9;;;17.5;49.9
54439;BME280;40347;53.848;27.498;2023-05-19T06:36:41;1024.9;;;17.8;48.8
54439;BME280;40347;53.848;27.498;2023-05-19T06:41:21;1024.9;;;17.7;47.1
54439;BME280;40347;53.848;27.498;2023-05-19T06:46:21;1024.9;;;17.4;47.6
54439;BME280;40347;53.848;27.498;2023-05-19T06:51:39;1025;;;17.4;48.5
54439;BME280;40347;53.848;27.498;2023-05-19T06:56:21;1025;;;17.8;48.3
54439;BME280;40347;53.848;27.498;2023-05-19T07:01:45;1024.9;;;18.1;47.2
54439;BME280;40347;53.848;27.498;2023-05-19T07:06:33;1024.9;;;17.8;47.6
54439;BME280;40347;53.848;27.498;2023-05-19T07:11:21;1024.9;;;17.4;46.8
54439;BME280;40347;53.848;27.498;2023-05-19T07:16:33;1024.9;;;17.4;47.6
54439;BME280;40347;53.848;27.498;2023-05-19T07:21:46;1024.9;;;17.4;47.2
54439;BME280;40347;53.848;27.498;2023-05-19T07:26:39;1024.9;;;17.3;46.2
54439;BME280;40347;53.848;27.498;2023-05-19T07:31:37;1024.9;;;17.4;45.9
54439;BME280;40347;53.848;27.498;2023-05-19T07:36:31;1024.9;;;17.9;45.1
54439;BME280;40347;53.848;27.498;2023-05-19T07:41:27;1025;;;18.2;44.7
54439;BME280;40347;53.848;27.498;2023-05-19T07:46:21;1025;;;18.4;44.5
54439;BME280;40347;53.848;27.498;2023-05-19T07:51:21;1025;;;18.1;44
54439;BME280;40347;53.848;27.498;2023-05-19T07:56:33;1025;;;17.9;45.6
54439;BME280;40347;53.848;27.498;2023-05-19T08:01:33;1024.9;;;17.8;45.7
54439;BME280;40347;53.848;27.498;2023-05-19T08:06:21;1024.9;;;17.6;44.6
54439;BME280;40347;53.848;27.498;2023-05-19T08:11:21;1024.9;;;17.6;44.1
54439;BME280;40347;53.848;27.498;2023-05-19T08:16:33;1024.8;;;17.5;43.5
54439;BME280;40347;53.848;27.498;2023-05-19T08:21:21;1024.8;;;17.4;43.1
54439;BME280;40347;53.848;27.498;2023-05-19T08:26:43;1024.8;;;17.5;42.5
54439;BME280;40347;53.848;27.498;2023-05-19T08:31:21;1024.7;;;17.6;40.9
54439;BME280;40347;53.848;27.498;2023-05-19T08:36:53;1024.7;;;18.1;41.3
54439;BME280;40347;53.848;27.498;2023-05-19T08:41:37;1024.6;;;18.8;41.5
54439;BME280;40347;53.848;27.498;2023-05-19T08:46:29;1024.6;;;19.5;40.7
54439;BME280;40347;53.848;27.498;2023-05-19T08:51:23;1024.7;;;20.4;40.7
54439;BME280;40347;53.848;27.498;2023-05-19T08:56:22;1024.7;;;21.2;38.8
54439;BME280;40347;53.848;27.498;2023-05-19T09:01:33;1024.7;;;21.7;37.7
54439;BME280;40347;53.848;27.498;2023-05-19T09:06:28;1024.7;;;21.6;37.7
54439;BME280;40347;53.848;27.498;2023-05-19T09:11:22;1024.6;;;21.3;37.9
54439;BME280;40347;53.848;27.498;2023-05-19T09:16:33;1024.6;;;21.5;38.8
54439;BME280;40347;53.848;27.498;2023-05-19T09:21:25;1024.6;;;21.5;36.4
54439;BME280;40347;53.848;27.498;2023-05-19T09:26:35;1024.5;;;21.1;36.8
54439;BME280;40347;53.848;27.498;2023-05-19T09:31:21;1024.6;;;19.9;36.8
54439;BME280;40347;53.848;27.498;2023-05-19T09:36:27;1024.5;;;19.5;38.8
54439;BME280;40347;53.848;27.498;2023-05-19T09:41:43;1024.5;;;19.1;38.8
54439;BME280;40347;53.848;27.498;2023-05-19T09:46:23;1024.5;;;18.9;39.3
54439;BME280;40347;53.848;27.498;2023-05-19T09:51:27;1024.5;;;18.6;39.7
54439;BME280;40347;53.848;27.498;2023-05-19T09:56:33;1024.5;;;18.6;39.7
54439;BME280;40347;53.848;27.498;2023-05-19T10:01:21;1024.5;;;18.4;38.9
54439;BME280;40347;53.848;27.498;2023-05-19T10:06:31;1024.5;;;18.3;39.1
54439;BME280;40347;53.848;27.498;2023-05-19T10:11:21;1024.4;;;18.4;40
54439;BME280;40347;53.848;27.498;2023-05-19T10:16:21;1024.4;;;18.6;39.8
54439;BME280;40347;53.848;27.498;2023-05-19T10:21:57;1024.4;;;18.8;40
54439;BME280;40347;53.848;27.498;2023-05-19T10:26:34;1024.4;;;18.9;39.7
54439;BME280;40347;53.848;27.498;2023-05-19T10:31:33;1024.3;;;19;39.7
54439;BME280;40347;53.848;27.498;2023-05-19T10:36:24;1024.3;;;19.1;38.1
54439;BME280;40347;53.848;27.498;2023-05-19T10:41:33;1024.2;;;19;37.5
54439;BME280;40347;53.848;27.498;2023-05-19T10:46:39;1024.2;;;18.8;36.5
54439;BME280;40347;53.848;27.498;2023-05-19T10:51:32;1024.2;;;18.9;36.6
54439;BME280;40347;53.848;27.498;2023-05-19T10:56:37;1024.2;;;19;36.3
54439;BME280;40347;53.848;27.498;2023-05-19T11:01:28;1024.2;;;19;36.6
54439;BME280;40347;53.848;27.498;2023-05-19T11:06:44;1024.2;;;19.1;37.5
54439;BME280;40347;53.848;27.498;2023-05-19T11:11:49;1024.2;;;19.4;37.7
54439;BME280;40347;53.848;27.498;2023-05-19T11:16:25;1024.2;;;19.7;37.5
54439;BME280;40347;53.848;27.498;2023-05-19T11:21:22;1024.2;;;19.8;36.4
54439;BME280;40347;53.848;27.498;2023-05-19T11:26:41;1024.1;;;19.9;36.4
54439;BME280;40347;53.848;27.498;2023-05-19T11:31:50;1024.1;;;19.9;35.8
54439;BME280;40347;53.848;27.498;2023-05-19T11:36:32;1024.1;;;19.9;36.5
54439;BME280;40347;53.848;27.498;2023-05-19T11:41:22;1024;;;20.3;36
54439;BME280;40347;53.848;27.498;2023-05-19T11:46:32;1024;;;20.6;35.9
54439;BME280;40347;53.848;27.498;2023-05-19T11:51:22;1024;;;20.8;34.9
54439;BME280;40347;53.848;27.498;2023-05-19T11:56:38;1024.1;;;21.2;35.2
54439;BME280;40347;53.848;27.498;2023-05-19T12:01:22;1024;;;21.5;35
54439;BME280;40347;53.848;27.498;2023-05-19T12:06:22;1024;;;21.8;35.1
54439;BME280;40347;53.848;27.498;2023-05-19T12:11:28;1024;;;22;33.5
54439;BME280;40347;53.848;27.498;2023-05-19T12:16:22;1024;;;21.4;32.4
54439;BME280;40347;53.848;27.498;2023-05-19T12:21:36;1024;;;21.2;33.5
54439;BME280;40347;53.848;27.498;2023-05-19T12:26:22;1023.9;;;21.3;33.7
54439;BME280;40347;53.848;27.498;2023-05-19T12:31:22;1023.9;;;21.6;33.8
54439;BME280;40347;53.848;27.498;2023-05-19T12:36:30;1023.9;;;21.7;34.3
54439;BME280;40347;53.848;27.498;2023-05-19T12:41:28;1023.9;;;21.9;33.1
54439;BME280;40347;53.848;27.498;2023-05-19T12:46:50;1024;;;21.9;33.2
54439;BME280;40347;53.848;27.498;2023-05-19T12:51:50;1023.9;;;22;33.3
54439;BME280;40347;53.848;27.498;2023-05-19T12:56:36;1023.9;;;22;32
54439;BME280;40347;53.848;27.498;2023-05-19T13:01:35;1023.9;;;21.9;32.6
54439;BME280;40347;53.848;27.498;2023-05-19T13:06:46;1023.9;;;22.1;32.6
54439;BME280;40347;53.848;27.498;2023-05-19T13:11:34;1023.9;;;22.3;32.6
54439;BME280;40347;53.848;27.498;2023-05-19T13:16:44;1023.8;;;22.3;31.8
54439;BME280;40347;53.848;27.498;2023-05-19T13:21:22;1023.8;;;22.1;33
54439;BME280;40347;53.848;27.498;2023-05-19T13:26:22;1023.7;;;22;32.3
54439;BME280;40347;53.848;27.498;2023-05-19T13:31:22;1023.8;;;21.7;33.1
54439;BME280;40347;53.848;27.498;2023-05-19T13:36:44;1023.8;;;21.5;33.5
54439;BME280;40347;53.848;27.498;2023-05-19T13:41:22;1023.8;;;21.4;33.9
54439;BME280;40347;53.848;27.498;2023-05-19T13:46:36;1023.8;;;21.5;33.9
54439;BME280;40347;53.848;27.498;2023-05-19T13:51:22;1023.8;;;21.5;33.9
54439;BME280;40347;53.848;27.498;2023-05-19T13:56:22;1023.8;;;21.3;33.6
54439;BME280;40347;53.848;27.498;2023-05-19T14:01:22;1023.8;;;21.1;34
54439;BME280;40347;53.848;27.498;2023-05-19T14:06:28;1023.8;;;21.1;34.4
54439;BME280;40347;53.848;27.498;2023-05-19T14:11:22;1023.8;;;21.1;34.6
54439;BME280;40347;53.848;27.498;2023-05-19T14:16:44;1023.7;;;21;34.7
54439;BME280;40347;53.848;27.498;2023-05-19T14:21:44;1023.8;;;21;35.1
54439;BME280;40347;53.848;27.498;2023-05-19T14:26:36;1023.8;;;20.9;34.9
54439;BME280;40347;53.848;27.498;2023-05-19T14:31:22;1023.8;;;20.9;34.8
54439;BME280;40347;53.848;27.498;2023-05-19T14:36:34;1023.7;;;21;35.1
54439;BME280;40347;53.848;27.498;2023-05-19T14:41:48;1023.7;;;21.1;35
54439;BME280;40347;53.848;27.498;2023-05-19T14:46:48;1023.8;;;21.2;35.2
54439;BME280;40347;53.848;27.498;2023-05-19T14:51:22;1023.8;;;21.6;34.8
54439;BME280;40347;53.848;27.498;2023-05-19T14:56:22;1023.8;;;21.8;33.8
54439;BME280;40347;53.848;27.498;2023-05-19T15:01:34;1023.8;;;21.9;34.1
54439;BME280;40347;53.848;27.498;2023-05-19T15:06:34;1023.7;;;22;32.8
54439;BME280;40347;53.848;27.498;2023-05-19T15:11:52;1023.7;;;21.9;33.3
54439;BME280;40347;53.848;27.498;2023-05-19T15:16:28;1023.7;;;22;33.5
54439;BME280;40347;53.848;27.498;2023-05-19T15:21:22;1023.7;;;22.2;33.3
54439;BME280;40347;53.848;27.498;2023-05-19T15:26:50;1023.7;;;22.2;33.6
54439;BME280;40347;53.848;27.498;2023-05-19T15:31:22;1023.8;;;22.1;33
54439;BME280;40347;53.848;27.498;2023-05-19T15:36:44;1023.8;;;21.8;33.5
54439;BME280;40347;53.848;27.498;2023-05-19T15:41:44;1023.8;;;21.7;33.5
54439;BME280;40347;53.848;27.498;2023-05-19T15:46:34;1023.8;;;21.5;33.1
54439;BME280;40347;53.848;27.498;2023-05-19T15:51:28;1023.7;;;21.5;33.9
54439;BME280;40347;53.848;27.498;2023-05-19T15:56:48;1023.7;;;21.5;33.9
54439;BME280;40347;53.848;27.498;2023-05-19T16:01:22;1023.8;;;21.5;34.3
54439;BME280;40347;53.848;27.498;2023-05-19T16:06:22;1023.8;;;21.5;34.2
54439;BME280;40347;53.848;27.498;2023-05-19T16:11:32;1023.8;;;21.4;34.3
54439;BME280;40347;53.848;27.498;2023-05-19T16:16:22;1023.8;;;21.4;34.6
54439;BME280;40347;53.848;27.498;2023-05-19T16:21:30;1023.8;;;21.4;34.6
54439;BME280;40347;53.848;27.498;2023-05-19T16:26:30;1023.8;;;21.3;34.6
54439;BME280;40347;53.848;27.498;2023-05-19T16:31:36;1023.8;;;21.2;34.5
54439;BME280;40347;53.848;27.498;2023-05-19T16:36:34;1023.7;;;20.9;34.7
54439;BME280;40347;53.848;27.498;2023-05-19T16:41:22;1023.8;;;20.7;35.3
54439;BME280;40347;53.848;27.498;2023-05-19T16:46:34;1023.8;;;20.5;35.2
54439;BME280;40347;53.848;27.498;2023-05-19T16:51:50;1023.8;;;20.4;35.6
54439;BME280;40347;53.848;27.498;2023-05-19T16:56:36;1023.8;;;20.4;36.2
54439;BME280;40347;53.848;27.498;2023-05-19T17:01:22;1023.8;;;20.3;36.5
54439;BME280;40347;53.848;27.498;2023-05-19T17:06:28;1023.8;;;20.2;36.7
54439;BME280;40347;53.848;27.498;2023-05-19T17:11:22;1023.8;;;20;36.8
54439;BME280;40347;53.848;27.498;2023-05-19T17:16:50;1023.8;;;20;37.1
54439;BME280;40347;53.848;27.498;2023-05-19T17:21:36;1023.9;;;19.9;37
54439;BME280;40347;53.848;27.498;2023-05-19T17:26:34;1023.9;;;19.7;37.1
54439;BME280;40347;53.848;27.498;2023-05-19T17:31:42;1023.9;;;19.6;36.8
54439;BME280;40347;53.848;27.498;2023-05-19T17:36:32;1024;;;19.4;36.9
54439;BME280;40347;53.848;27.498;2023-05-19T17:41:34;1024;;;19.2;37.6
54439;BME280;40347;53.848;27.498;2023-05-19T17:46:42;1024;;;19;38.6
54439;BME280;40347;53.848;27.498;2023-05-19T17:51:34;1024;;;18.8;39.5
54439;BME280;40347;53.848;27.498;2023-05-19T17:56:50;1024;;;18.6;39.9
54439;BME280;40347;53.848;27.498;2023-05-19T18:01:22;1024;;;18.3;40.3
54439;BME280;40347;53.848;27.498;2023-05-19T18:06:22;1024.1;;;18.1;40.8
54439;BME280;40347;53.848;27.498;2023-05-19T18:11:36;1024.1;;;17.9;40.9
54439;BME280;40347;53.848;27.498;2023-05-19T18:16:34;1024.2;;;17.7;41.7
54439;BME280;40347;53.848;27.498;2023-05-19T18:21:28;1024.2;;;17.6;42.1
54439;BME280;40347;53.848;27.498;2023-05-19T18:26:22;1024.2;;;17.4;42.9
54439;BME280;40347;53.848;27.498;2023-05-19T18:31:22;1024.3;;;17.3;43.2
54439;BME280;40347;53.848;27.498;2023-05-19T18:36:34;1024.3;;;17.2;43.1
54439;BME280;40347;53.848;27.498;2023-05-19T18:41:22;1024.3;;;17;44.1
54439;BME280;40347;53.848;27.498;2023-05-19T18:46:22;1024.4;;;16.9;44.5
54439;BME280;40347;53.848;27.498;2023-05-19T18:51:22;1024.4;;;16.8;44.4
54439;BME280;40347;53.848;27.498;2023-05-19T18:56:34;1024.5;;;16.7;45.3
54439;BME280;40347;53.848;27.498;2023-05-19T19:01:48;1024.5;;;16.6;45
54439;BME280;40347;53.848;27.498;2023-05-19T19:06:48;1024.5;;;16.6;44.8
54439;BME280;40347;53.848;27.498;2023-05-19T19:11:26;1024.6;;;16.6;45
54439;BME280;40347;53.848;27.498;2023-05-19T19:16:46;1024.6;;;16.5;45.2
54439;BME280;40347;53.848;27.498;2023-05-19T19:21:34;1024.6;;;16.5;45.4
54439;BME280;40347;53.848;27.498;2023-05-19T19:26:38;1024.6;;;16.3;45.5
54439;BME280;40347;53.848;27.498;2023-05-19T19:31:22;1024.6;;;16.3;45.3
54439;BME280;40347;53.848;27.498;2023-05-19T19:36:36;1024.7;;;16.2;45.8
54439;BME280;40347;53.848;27.498;2023-05-19T19:41:22;1024.7;;;16.1;46.2
54439;BME280;40347;53.848;27.498;2023-05-19T19:46:34;1024.8;;;16.1;46.1
54439;BME280;40347;53.848;27.498;2023-05-19T19:51:36;1024.8;;;16.1;45.8
54439;BME280;40347;53.848;27.498;2023-05-19T19:56:40;1024.8;;;15.9;46.4
54439;BME280;40347;53.848;27.498;2023-05-19T20:01:34;1024.8;;;15.8;46.5
54439;BME280;40347;53.848;27.498;2023-05-19T20:06:34;1024.9;;;15.8;46.5
54439;BME280;40347;53.848;27.498;2023-05-19T20:11:22;1024.9;;;15.8;46.9
54439;BME280;40347;53.848;27.498;2023-05-19T20:16:36;1024.9;;;15.7;47.1
54439;BME280;40347;53.848;27.498;2023-05-19T20:21:22;1024.9;;;15.7;46.9
54439;BME280;40347;53.848;27.498;2023-05-19T20:26:56;1025;;;15.6;47.5
54439;BME280;40347;53.848;27.498;2023-05-19T20:31:48;1025;;;15.6;47.4
54439;BME280;40347;53.848;27.498;2023-05-19T20:36:40;1025.1;;;15.5;47.9
54439;BME280;40347;53.848;27.498;2023-05-19T20:41:22;1025.1;;;15.4;47.9
54439;BME280;40347;53.848;27.498;2023-05-19T20:46:46;1025.1;;;15.4;48.2
54439;BME280;40347;53.848;27.498;2023-05-19T20:51:22;1025.1;;;15.3;48.5
54439;BME280;40347;53.848;27.498;2023-05-19T20:56:34;1025.2;;;15.2;48.9
54439;BME280;40347;53.848;27.498;2023-05-19T21:01:36;1025.2;;;15.1;49
54439;BME280;40347;53.848;27.498;2023-05-19T21:06:40;1025.2;;;15;49.4
54439;BME280;40347;53.848;27.498;2023-05-19T21:11:46;1025.3;;;15;49.5
54439;BME280;40347;53.848;27.498;2023-05-19T21:17:12;1025.3;;;14.9;49.3
54439;BME280;40347;53.848;27.498;2023-05-19T21:21:34;1025.3;;;14.8;49.4
54439;BME280;40347;53.848;27.498;2023-05-19T21:26:22;1025.3;;;14.8;49.5
54439;BME280;40347;53.848;27.498;2023-05-19T21:31:36;1025.3;;;14.7;49.8
54439;BME280;40347;53.848;27.498;2023-05-19T21:36:22;1025.3;;;14.7;50
54439;BME280;40347;53.848;27.498;2023-05-19T21:41:28;1025.4;;;14.5;50.5
54439;BME280;40347;53.848;27.498;2023-05-19T21:47:02;1025.4;;;14.5;50.3
54439;BME280;40347;53.848;27.498;2023-05-19T21:51:22;1025.4;;;14.4;50.4
54439;BME280;40347;53.848;27.498;2023-05-19T21:56:28;1025.5;;;14.3;50.8
54439;BME280;40347;53.848;27.498;2023-05-19T22:01:40;1025.5;;;14.2;51.1
54439;BME280;40347;53.848;27.498;2023-05-19T22:06:48;1025.5;;;14.2;51.2
54439;BME280;40347;53.848;27.498;2023-05-19T22:11:42;1025.5;;;14.1;51.3
54439;BME280;40347;53.848;27.498;2023-05-19T22:16:48;1025.5;;;14;51.5
54439;BME280;40347;53.848;27.498;2023-05-19T22:21:34;1025.5;;;14;51.8
54439;BME280;40347;53.848;27.498;2023-05-19T22:26:22;1025.6;;;13.9;52.2
54439;BME280;40347;53.848;27.498;2023-05-19T22:31:22;1025.6;;;13.8;52.2
54439;BME280;40347;53.848;27.498;2023-05-19T22:36:36;1025.6;;;13.8;52.1
54439;BME280;40347;53.848;27.498;2023-05-19T22:41:34;1025.6;;;13.7;52.4
54439;BME280;40347;53.848;27.498;2023-05-19T22:46:28;1025.6;;;13.6;52.1
54439;BME280;40347;53.848;27.498;2023-05-19T22:51:42;1025.6;;;13.6;52.5
54439;BME280;40347;53.848;27.498;2023-05-19T22:56:36;1025.6;;;13.6;52.2
54439;BME280;40347;53.848;27.498;2023-05-19T23:01:40;1025.7;;;13.5;52.3
54439;BME280;40347;53.848;27.498;2023-05-19T23:06:22;1025.7;;;13.5;52.2
54439;BME280;40347;53.848;27.498;2023-05-19T23:11:22;1025.7;;;13.4;52.5
54439;BME280;40347;53.848;27.498;2023-05-19T23:16:54;1025.8;;;13.3;52.7
54439;BME280;40347;53.848;27.498;2023-05-19T23:21:22;1025.8;;;13.3;52.8
54439;BME280;40347;53.848;27.498;2023-05-19T23:26:22;1025.8;;;13.3;53.3
54439;BME280;40347;53.848;27.498;2023-05-19T23:31:34;1025.9;;;13.2;53
54439;BME280;40347;53.848;27.498;2023-05-19T23:36:28;1025.9;;;13.2;52.7
54439;BME280;40347;53.848;27.498;2023-05-19T23:41:34;1025.9;;;13.2;52.6
54439;BME280;40347;53.848;27.498;2023-05-19T23:46:36;1025.9;;;13.1;52.2
54439;BME280;40347;53.848;27.498;2023-05-19T23:51:30;1025.9;;;13.1;52.3
54439;BME280;40347;53.848;27.498;2023-05-19T23:57:04;1026;;;13.1;52.1
